createdAt,value
2022-12-31T00:00:38.752Z,68175.94
2022-12-31T00:03:08.416Z,68185.75
2022-12-31T00:05:37.058Z,68179.91
2022-12-31T00:08:04.799Z,68184.44
2022-12-31T00:10:34.267Z,68186.88
2022-12-31T00:13:01.768Z,68182.16
2022-12-31T00:15:29.196Z,68191.22
2022-12-31T00:17:56.523Z,68190.66
2022-12-31T00:20:23.944Z,68190.66
2022-12-31T00:22:51.348Z,68191.41
2022-12-31T00:25:18.965Z,68181.22
2022-12-31T00:27:46.489Z,68180.09
2022-12-31T00:30:16.809Z,68182.72
2022-12-31T00:32:44.233Z,68185.94
2022-12-31T00:35:12.072Z,68181.03
2022-12-31T00:37:39.457Z,68183.31
2022-12-31T00:40:07.587Z,68181.22
2022-12-31T00:42:34.943Z,68190.09
2022-12-31T00:45:02.368Z,68196.91
2022-12-31T00:47:30.090Z,68203.13
2022-12-31T00:49:57.466Z,68210.28
2022-12-31T00:52:24.842Z,68225.78
2022-12-31T00:54:52.246Z,68226.72
2022-12-31T00:57:19.624Z,68216.72
2022-12-31T00:59:47.187Z,68216.31
2022-12-31T01:02:14.825Z,68200.28
2022-12-31T01:04:42.285Z,68205.56
2022-12-31T01:07:09.740Z,68199.91
2022-12-31T01:09:37.106Z,68192.72
2022-12-31T01:12:04.783Z,68199.72
2022-12-31T01:14:33.938Z,68193.50
2022-12-31T01:17:01.305Z,68191.22
2022-12-31T01:19:29.886Z,68188.38
2022-12-31T01:21:57.829Z,68203.50
2022-12-31T01:24:25.464Z,68211.81
2022-12-31T01:26:53.042Z,68214.44
2022-12-31T01:29:21.510Z,68222.94
2022-12-31T01:31:48.815Z,68224.25
2022-12-31T01:34:16.253Z,68218.22
2022-12-31T01:36:44.772Z,68202.56
2022-12-31T01:39:12.484Z,68189.16
2022-12-31T01:41:43.372Z,68196.50
2022-12-31T01:44:13.487Z,68208.56
2022-12-31T01:46:53.322Z,68202.16
2022-12-31T01:49:44.657Z,68208.41
2022-12-31T01:52:21.375Z,68198.59
2022-12-31T01:54:58.354Z,68201.41
2022-12-31T01:57:27.557Z,68190.66
2022-12-31T01:59:56.539Z,68196.50
2022-12-31T02:02:24.197Z,68214.44
2022-12-31T02:04:55.952Z,68227.47
2022-12-31T02:07:24.023Z,68245.41
2022-12-31T02:09:52.272Z,68256.34
2022-12-31T02:12:20.034Z,68254.09
2022-12-31T02:14:50.771Z,68258.44
2022-12-31T02:17:40.042Z,68278.06
2022-12-31T02:20:28.874Z,68274.28
2022-12-31T02:23:17.697Z,68278.47
2022-12-31T02:26:08.752Z,68296.41
2022-12-31T02:28:38.724Z,68299.22
2022-12-31T02:31:17.906Z,68306.41
2022-12-31T02:33:54.638Z,68322.84
2022-12-31T02:36:25.677Z,68325.31
2022-12-31T02:38:53.549Z,68324.94
2022-12-31T02:41:39.634Z,68328.34
2022-12-31T02:44:26.217Z,68336.47
2022-12-31T02:47:09.023Z,68331.38
2022-12-31T02:49:45.836Z,68327.78
2022-12-31T02:52:34.575Z,68337.59
2022-12-31T02:55:19.850Z,68340.06
2022-12-31T02:57:56.236Z,68343.06
2022-12-31T03:00:42.304Z,68338.34
2022-12-31T03:03:11.068Z,68345.34
2022-12-31T03:05:42.240Z,68348.38
2022-12-31T03:08:09.982Z,68363.88
2022-12-31T03:10:37.396Z,68368.59
2022-12-31T03:13:04.780Z,68363.28
2022-12-31T03:15:34.487Z,68345.91
2022-12-31T03:18:12.257Z,68343.06
2022-12-31T03:21:02.386Z,68335.34
2022-12-31T03:23:37.671Z,68342.69
2022-12-31T03:26:12.619Z,68342.34
2022-12-31T03:28:42.524Z,68332.31
2022-12-31T03:31:09.973Z,68328.91
2022-12-31T03:33:39.976Z,68329.47
2022-12-31T03:36:10.620Z,68352.16
2022-12-31T03:38:38.230Z,68346.47
2022-12-31T03:41:06.089Z,68348.75
2022-12-31T03:43:33.424Z,68374.84
2022-12-31T03:46:01.719Z,68386.75
2022-12-31T03:48:29.138Z,68384.47
2022-12-31T03:50:56.501Z,68380.69
2022-12-31T03:53:23.851Z,68386.19
2022-12-31T03:55:54.785Z,68374.25
2022-12-31T03:58:22.807Z,68363.28
2022-12-31T04:00:50.720Z,68363.13
2022-12-31T04:03:18.369Z,68378.81
2022-12-31T04:05:51.887Z,68384.47
2022-12-31T04:08:19.296Z,68394.13
2022-12-31T04:10:46.649Z,68391.09
2022-12-31T04:13:14.010Z,68386.34
2022-12-31T04:15:41.417Z,68396.94
2022-12-31T04:18:08.818Z,68393.53
2022-12-31T04:20:36.241Z,68394.13
2022-12-31T04:23:03.719Z,68399.22
2022-12-31T04:25:31.096Z,68396.56
2022-12-31T04:27:59.059Z,68379.34
2022-12-31T04:30:26.355Z,68417.38
2022-12-31T04:32:53.565Z,68421.50
2022-12-31T04:35:20.939Z,68425.88
2022-12-31T04:37:48.599Z,68433.81
2022-12-31T04:40:15.998Z,68434.94
2022-12-31T04:42:43.424Z,68433.25
2022-12-31T04:45:10.847Z,68421.91
2022-12-31T04:47:38.419Z,68430.22
2022-12-31T04:50:06.407Z,68426.25
2022-12-31T04:52:38.748Z,68421.91
2022-12-31T04:55:09.619Z,68414.13
2022-12-31T04:57:37.049Z,68408.84
2022-12-31T05:00:12.994Z,68420.75
2022-12-31T05:02:45.509Z,68418.50
2022-12-31T05:05:17.108Z,68414.53
2022-12-31T05:07:45.356Z,68416.78
2022-12-31T05:10:14.009Z,68425.31
2022-12-31T05:12:43.781Z,68435.13
2022-12-31T05:15:15.317Z,68421.50
2022-12-31T05:17:42.396Z,68426.44
2022-12-31T05:20:09.823Z,68418.50
2022-12-31T05:22:36.913Z,68425.88
2022-12-31T05:25:05.559Z,68425.31
2022-12-31T05:27:33.609Z,68417.72
2022-12-31T05:30:00.700Z,68411.31
2022-12-31T05:32:28.030Z,68417.72
2022-12-31T05:34:55.145Z,68429.28
2022-12-31T05:37:22.329Z,68430.22
2022-12-31T05:39:49.459Z,68434.94
2022-12-31T05:42:18.409Z,68444.22
2022-12-31T05:44:48.565Z,68452.53
2022-12-31T05:47:38.645Z,68444.38
2022-12-31T05:50:07.425Z,68455.75
2022-12-31T05:52:34.551Z,68464.81
2022-12-31T05:55:02.080Z,68468.03
2022-12-31T05:57:29.204Z,68466.16
2022-12-31T05:59:58.700Z,68471.63
2022-12-31T06:02:35.648Z,68462.75
2022-12-31T06:05:13.273Z,68461.63
2022-12-31T06:07:43.399Z,68458.00
2022-12-31T06:10:10.512Z,68460.66
2022-12-31T06:12:37.608Z,68499.25
2022-12-31T06:15:11.174Z,68497.19
2022-12-31T06:17:41.558Z,68497.34
2022-12-31T06:20:18.597Z,68515.91
2022-12-31T06:22:54.068Z,68524.06
2022-12-31T06:25:24.041Z,68528.41
2022-12-31T06:27:51.724Z,68528.59
2022-12-31T06:30:22.098Z,68525.56
2022-12-31T06:32:49.183Z,68545.63
2022-12-31T06:35:21.107Z,68526.84
2022-12-31T06:37:48.245Z,68548.66
2022-12-31T06:40:17.120Z,68517.78
2022-12-31T06:42:46.937Z,68535.97
2022-12-31T06:45:19.305Z,68555.84
2022-12-31T06:47:46.817Z,68541.25
2022-12-31T06:50:17.667Z,68555.84
2022-12-31T06:52:52.104Z,68558.50
2022-12-31T06:55:22.237Z,68553.94
2022-12-31T06:57:49.700Z,68543.34
2022-12-31T07:00:23.258Z,68535.78
2022-12-31T07:03:20.578Z,68539.94
2022-12-31T07:05:58.437Z,68531.44
2022-12-31T07:08:51.631Z,68536.72
2022-12-31T07:11:31.339Z,68555.28
2022-12-31T07:14:09.588Z,68563.22
2022-12-31T07:17:02.554Z,68585.19
2022-12-31T07:19:41.476Z,68553.53
2022-12-31T07:22:20.300Z,68593.88
2022-12-31T07:24:56.409Z,68595.38
2022-12-31T07:27:55.686Z,68588.59
2022-12-31T07:30:36.000Z,68599.56
2022-12-31T07:33:15.993Z,68614.91
2022-12-31T07:36:27.160Z,68618.88
2022-12-31T07:39:15.057Z,68623.25
2022-12-31T07:42:02.895Z,68632.69
2022-12-31T07:44:36.623Z,68644.81
2022-12-31T07:47:26.802Z,68645.56
2022-12-31T07:50:02.107Z,68650.69
2022-12-31T07:52:32.073Z,68674.75
2022-12-31T07:54:59.372Z,68684.22
2022-12-31T07:57:34.435Z,68692.16
2022-12-31T08:00:09.496Z,68701.25
2022-12-31T08:03:02.994Z,68702.97
2022-12-31T08:05:40.808Z,68701.66
2022-12-31T08:08:26.466Z,68697.28
2022-12-31T08:14:01.920Z,68722.28
2022-12-31T08:16:43.400Z,68712.25
2022-12-31T08:19:25.715Z,68719.63
2022-12-31T08:22:02.849Z,68727.97
2022-12-31T08:24:50.238Z,68729.69
2022-12-31T08:27:40.061Z,68733.28
2022-12-31T08:30:13.516Z,68739.34
2022-12-31T08:32:51.397Z,68744.44
2022-12-31T08:35:54.044Z,68747.09
2022-12-31T08:38:46.266Z,68759.25
2022-12-31T08:41:37.581Z,68757.53
2022-12-31T08:44:23.285Z,68767.38
2022-12-31T08:47:02.481Z,68784.81
2022-12-31T08:49:31.843Z,68789.38
2022-12-31T08:52:00.107Z,68769.41
2022-12-31T08:54:27.989Z,68790.13
2022-12-31T08:57:00.764Z,68790.69
2022-12-31T08:59:53.520Z,68793.91
2022-12-31T09:02:40.908Z,68800.56
2022-12-31T09:05:22.452Z,68794.69
2022-12-31T09:08:04.133Z,68817.06
2022-12-31T09:10:45.473Z,68815.56
2022-12-31T09:13:39.345Z,68835.44
2022-12-31T09:16:33.763Z,68834.50
2022-12-31T09:19:06.761Z,68843.59
2022-12-31T09:21:38.053Z,68849.84
2022-12-31T09:24:13.924Z,68843.59
2022-12-31T09:26:59.297Z,68848.16
2022-12-31T09:29:41.301Z,68844.56
2022-12-31T09:32:27.541Z,68839.63
2022-12-31T09:35:24.895Z,68835.66
2022-12-31T09:38:05.282Z,68844.00
2022-12-31T09:40:42.355Z,68815.47
2022-12-31T09:43:32.558Z,68840.59
2022-12-31T09:46:05.672Z,68845.72
2022-12-31T09:48:55.019Z,68842.09
2022-12-31T09:51:36.620Z,68849.69
2022-12-31T09:54:09.837Z,68865.78
2022-12-31T09:56:48.128Z,68871.66
2022-12-31T09:59:23.628Z,68882.09
2022-12-31T10:02:02.597Z,68885.72
2022-12-31T10:05:08.640Z,68894.03
2022-12-31T10:07:53.511Z,68887.22
2022-12-31T10:10:44.015Z,68890.81
2022-12-31T10:14:01.783Z,68890.06
2022-12-31T10:16:43.132Z,68894.03
2022-12-31T10:19:12.735Z,68901.28
2022-12-31T10:22:05.825Z,68896.34
2022-12-31T10:25:37.989Z,68907.88
2022-12-31T10:28:31.832Z,68927.44
2022-12-31T10:31:41.114Z,68934.47
2022-12-31T10:34:17.204Z,68916.59
2022-12-31T10:36:55.482Z,68930.50
2022-12-31T10:39:34.482Z,68919.66
2022-12-31T10:42:23.131Z,68925.00
2022-12-31T10:45:17.585Z,68921.38
2022-12-31T10:48:11.919Z,68889.97
2022-12-31T10:51:12.107Z,68903.91
2022-12-31T10:54:01.142Z,68891.78
2022-12-31T10:57:07.308Z,68884.38
2022-12-31T11:00:05.561Z,68887.78
2022-12-31T11:02:47.303Z,68886.09
2022-12-31T11:05:50.922Z,68896.16
2022-12-31T11:08:49.810Z,68905.25
2022-12-31T11:11:22.793Z,68917.78
2022-12-31T11:14:10.868Z,68900.31
2022-12-31T11:16:46.871Z,68911.50
2022-12-31T11:19:28.855Z,68894.78
2022-12-31T11:22:05.557Z,68893.66
2022-12-31T11:24:56.495Z,68891.78
2022-12-31T11:27:36.972Z,68893.13
2022-12-31T11:30:07.102Z,68885.53
2022-12-31T11:32:46.504Z,68884.97
2022-12-31T11:35:27.036Z,68863.22
2022-12-31T11:38:21.756Z,68867.22
2022-12-31T11:41:00.443Z,68890.81
2022-12-31T11:43:38.860Z,68897.47
2022-12-31T11:46:26.839Z,68905.44
2022-12-31T11:49:07.894Z,68917.00
2022-12-31T11:51:50.051Z,68921.38
2022-12-31T11:54:41.079Z,68934.47
2022-12-31T11:57:35.340Z,68923.06
2022-12-31T12:00:21.393Z,68937.91
2022-12-31T12:02:51.448Z,68924.59
2022-12-31T12:05:24.249Z,68928.97
2022-12-31T12:07:52.856Z,68920.72
2022-12-31T12:10:31.785Z,68936.38
2022-12-31T12:13:21.608Z,68953.66
2022-12-31T12:15:52.853Z,68967.31
2022-12-31T12:18:29.675Z,68972.06
2022-12-31T12:21:09.238Z,68967.94
2022-12-31T12:23:39.836Z,68984.75
2022-12-31T12:26:07.776Z,68989.72
2022-12-31T12:28:45.992Z,68987.25
2022-12-31T12:31:23.963Z,68988.00
2022-12-31T12:33:55.591Z,69001.09
2022-12-31T12:36:22.756Z,69002.22
2022-12-31T12:39:01.387Z,68975.34
2022-12-31T12:41:31.643Z,69002.41
2022-12-31T12:44:10.230Z,69013.63
2022-12-31T12:46:52.454Z,69008.09
2022-12-31T12:49:26.884Z,69002.78
2022-12-31T12:52:24.486Z,68996.53
2022-12-31T12:55:25.492Z,68991.03
2022-12-31T12:58:23.531Z,68977.53
2022-12-31T13:01:14.295Z,68981.34
2022-12-31T13:04:32.529Z,68970.91
2022-12-31T13:07:22.944Z,68963.69
2022-12-31T13:10:09.977Z,68942.34
2022-12-31T13:13:13.693Z,68952.88
2022-12-31T13:15:42.427Z,68936.66
2022-12-31T13:18:28.537Z,68957.09
2022-12-31T13:21:15.963Z,68945.88
2022-12-31T13:23:47.494Z,68949.69
2022-12-31T13:26:29.028Z,68911.06
2022-12-31T13:29:02.015Z,68905.91
2022-12-31T13:31:34.077Z,68933.34
2022-12-31T13:34:13.439Z,68926.69
2022-12-31T13:36:46.159Z,68913.97
2022-12-31T13:39:24.797Z,68889.97
2022-12-31T13:41:57.994Z,68921.38
2022-12-31T13:44:29.195Z,68907.13
2022-12-31T13:47:02.704Z,68908.28
2022-12-31T13:49:40.154Z,68909.03
2022-12-31T13:52:21.618Z,68907.31
2022-12-31T13:55:10.683Z,68913.97
2022-12-31T13:57:44.853Z,68909.41
2022-12-31T14:00:24.923Z,68898.63
2022-12-31T14:03:01.705Z,68907.13
2022-12-31T14:05:39.545Z,68889.69
2022-12-31T14:08:09.987Z,68899.75
2022-12-31T14:10:39.822Z,68899.75
2022-12-31T14:13:34.968Z,68861.53
2022-12-31T14:16:07.884Z,68885.13
2022-12-31T14:18:47.824Z,68874.69
2022-12-31T14:21:23.692Z,68871.88
2022-12-31T14:23:59.843Z,68869.59
2022-12-31T14:26:32.830Z,68855.94
2022-12-31T14:29:27.649Z,68853.09
2022-12-31T14:32:29.034Z,68835.94
2022-12-31T14:35:33.639Z,68852.53
2022-12-31T14:38:11.583Z,68857.66
2022-12-31T14:40:45.833Z,68852.53
2022-12-31T14:43:34.416Z,68847.22
2022-12-31T14:46:24.533Z,68843.59
2022-12-31T14:49:29.425Z,68846.28
2022-12-31T14:52:08.205Z,68839.44
2022-12-31T14:54:41.432Z,68842.09
2022-12-31T14:57:26.667Z,68840.59
2022-12-31T14:59:58.541Z,68833.19
2022-12-31T15:02:29.637Z,68835.44
2022-12-31T15:05:14.820Z,68830.34
2022-12-31T15:07:59.267Z,68842.84
2022-12-31T15:10:49.943Z,68837.72
2022-12-31T15:13:45.211Z,68837.16
2022-12-31T15:16:30.696Z,68842.47
2022-12-31T15:19:06.680Z,68836.41
2022-12-31T15:22:04.675Z,68818.97
2022-12-31T15:24:32.043Z,68819.53
2022-12-31T15:27:05.534Z,68841.72
2022-12-31T15:29:45.897Z,68835.44
2022-12-31T15:32:20.999Z,68819.53
2022-12-31T15:34:48.201Z,68823.91
2022-12-31T15:37:36.337Z,68818.00
2022-12-31T15:40:15.267Z,68819.34
2022-12-31T15:42:50.285Z,68819.94
2022-12-31T15:45:31.468Z,68807.41
2022-12-31T15:48:01.307Z,68804.75
2022-12-31T15:50:29.376Z,68824.06
2022-12-31T15:53:00.258Z,68805.31
2022-12-31T15:55:37.632Z,68802.84
2022-12-31T15:58:11.028Z,68803.63
2022-12-31T16:01:20.715Z,68814.78
2022-12-31T16:04:08.836Z,68804.53
2022-12-31T16:06:44.880Z,68806.06
2022-12-31T16:09:39.744Z,68806.09
2022-12-31T16:12:26.477Z,68805.72
2022-12-31T16:14:59.117Z,68798.50
2022-12-31T16:17:28.959Z,68807.41
2022-12-31T16:19:58.483Z,68799.06
2022-12-31T16:22:26.352Z,68800.94
2022-12-31T16:27:46.395Z,68807.41
2022-12-31T16:30:30.081Z,68802.06
2022-12-31T16:33:14.537Z,68799.25
2022-12-31T16:35:41.726Z,68815.00
2022-12-31T16:38:15.799Z,68816.50
2022-12-31T16:41:05.787Z,68828.84
2022-12-31T16:43:39.742Z,68833.56
2022-12-31T16:46:27.024Z,68837.16
2022-12-31T16:49:00.568Z,68802.97
2022-12-31T16:51:34.118Z,68820.31
2022-12-31T16:54:02.272Z,68805.88
2022-12-31T16:56:36.402Z,68799.25
2022-12-31T16:59:16.745Z,68799.81
2022-12-31T17:01:45.495Z,68816.13
2022-12-31T17:04:17.368Z,68820.09
2022-12-31T17:06:44.567Z,68826.19
2022-12-31T17:09:15.555Z,68815.00
2022-12-31T17:11:50.441Z,68809.31
2022-12-31T17:14:28.586Z,68801.50
2022-12-31T17:17:04.148Z,68821.81
2022-12-31T17:19:47.298Z,68819.53
2022-12-31T17:22:35.901Z,68827.50
2022-12-31T17:25:26.601Z,68829.59
2022-12-31T17:28:05.712Z,68820.09
2022-12-31T17:30:32.809Z,68813.84
2022-12-31T17:33:09.686Z,68811.41
2022-12-31T17:35:42.572Z,68810.81
2022-12-31T17:38:17.792Z,68806.44
2022-12-31T17:40:51.249Z,68804.75
2022-12-31T17:43:21.520Z,68797.34
2022-12-31T17:45:56.039Z,68806.28
2022-12-31T17:48:27.316Z,68814.41
2022-12-31T17:51:00.159Z,68805.31
2022-12-31T17:53:27.659Z,68812.53
2022-12-31T17:55:59.755Z,68811.75
2022-12-31T17:58:48.363Z,68815.19
2022-12-31T18:01:20.864Z,68801.34
2022-12-31T18:03:48.658Z,68796.41
2022-12-31T18:06:19.252Z,68806.44
2022-12-31T18:08:49.374Z,68796.97
2022-12-31T18:11:20.922Z,68794.50
2022-12-31T18:13:49.281Z,68781.41
2022-12-31T18:16:17.536Z,68777.25
2022-12-31T18:18:45.476Z,68768.91
2022-12-31T18:21:29.529Z,68778.97
2022-12-31T18:26:24.565Z,68746.16
2022-12-31T18:28:52.345Z,68752.22
2022-12-31T18:31:23.104Z,68742.38
2022-12-31T18:33:51.729Z,68752.06
2022-12-31T18:36:20.390Z,68754.69
2022-12-31T18:38:47.706Z,68755.25
2022-12-31T18:41:21.392Z,68751.44
2022-12-31T18:43:49.453Z,68763.41
2022-12-31T18:46:19.118Z,68757.53
2022-12-31T18:48:46.297Z,68765.31
2022-12-31T18:51:20.334Z,68746.56
2022-12-31T18:53:47.669Z,68749.56
2022-12-31T18:56:18.165Z,68752.22
2022-12-31T18:58:46.044Z,68743.88
2022-12-31T19:01:40.614Z,68752.78
2022-12-31T19:04:34.063Z,68747.09
2022-12-31T19:07:01.347Z,68739.75
2022-12-31T19:09:45.019Z,68743.31
2022-12-31T19:12:14.074Z,68747.47
2022-12-31T19:14:41.197Z,68745.59
2022-12-31T19:19:35.012Z,68735.38
2022-12-31T19:22:02.854Z,68735.94
2022-12-31T19:24:31.843Z,68743.88
2022-12-31T19:27:00.858Z,68757.91
2022-12-31T19:29:28.479Z,68769.47
2022-12-31T19:31:55.718Z,68771.00
2022-12-31T19:34:22.860Z,68761.13
2022-12-31T19:36:50.565Z,68759.81
2022-12-31T19:39:20.968Z,68765.50
2022-12-31T19:41:54.627Z,68758.09
2022-12-31T19:44:26.740Z,68774.59
2022-12-31T19:46:54.219Z,68768.91
2022-12-31T19:49:21.854Z,68765.09
2022-12-31T19:51:49.089Z,68784.66
2022-12-31T19:54:16.181Z,68781.59
2022-12-31T19:56:43.378Z,68775.94
2022-12-31T19:59:10.958Z,68775.16
2022-12-31T20:01:38.658Z,68763.78
2022-12-31T20:04:06.022Z,68752.34
2022-12-31T20:06:33.208Z,68781.41
2022-12-31T20:09:00.526Z,68784.25
2022-12-31T20:11:27.741Z,68794.88
2022-12-31T20:13:59.287Z,68794.09
2022-12-31T20:16:31.687Z,68801.50
2022-12-31T20:18:59.291Z,68801.91
2022-12-31T20:21:28.576Z,68816.13
2022-12-31T20:23:58.657Z,68829.41
2022-12-31T20:26:26.327Z,68828.06
2022-12-31T20:28:57.317Z,68840.59
2022-12-31T20:31:38.345Z,68848.53
2022-12-31T20:34:05.552Z,68830.34
2022-12-31T20:36:32.705Z,68842.84
2022-12-31T20:39:02.361Z,68845.13
2022-12-31T20:41:29.792Z,68845.31
2022-12-31T20:43:57.432Z,68856.50
2022-12-31T20:46:28.781Z,68852.91
2022-12-31T20:49:00.572Z,68851.22
2022-12-31T20:51:30.064Z,68862.19
2022-12-31T20:54:06.356Z,68847.97
2022-12-31T20:56:35.929Z,68853.09
2022-12-31T20:59:03.957Z,68851.97
2022-12-31T21:01:55.402Z,68836.25
2022-12-31T21:04:22.939Z,68811.47
2022-12-31T21:06:56.026Z,68814.91
2022-12-31T21:09:25.945Z,68838.13
2022-12-31T21:12:13.162Z,68832.06
2022-12-31T21:14:44.732Z,68829.59
2022-12-31T21:17:13.507Z,68827.31
2022-12-31T21:19:40.665Z,68834.31
2022-12-31T21:22:08.956Z,68862.59
2022-12-31T21:24:36.110Z,68853.28
2022-12-31T21:27:10.397Z,68864.47
2022-12-31T21:30:01.687Z,68876.06
2022-12-31T21:32:24.709Z,68859.53
2022-12-31T21:35:14.981Z,68851.56
2022-12-31T21:37:58.849Z,68849.28
2022-12-31T21:40:27.044Z,68862.03
2022-12-31T21:42:58.136Z,68890.84
2022-12-31T21:45:27.986Z,68885.34
2022-12-31T21:48:17.699Z,68879.25
2022-12-31T21:50:49.234Z,68875.28
2022-12-31T21:53:23.687Z,68877.00
2022-12-31T21:56:11.298Z,68886.66
2022-12-31T21:58:44.252Z,68879.47
2022-12-31T22:01:39.231Z,68871.31
2022-12-31T22:04:12.909Z,68859.72
2022-12-31T22:06:49.544Z,68868.44
2022-12-31T22:09:16.681Z,68869.59
2022-12-31T22:11:46.109Z,68871.47
2022-12-31T22:14:16.063Z,68873.56
2022-12-31T22:16:43.212Z,68875.44
2022-12-31T22:19:10.425Z,68879.25
2022-12-31T22:21:37.660Z,68885.13
2022-12-31T22:24:05.849Z,68878.69
2022-12-31T22:26:33.027Z,68879.25
2022-12-31T22:29:00.318Z,68879.47
2022-12-31T22:31:30.355Z,68869.41
2022-12-31T22:33:58.458Z,68854.78
2022-12-31T22:36:34.393Z,68872.25
2022-12-31T22:39:04.112Z,68868.63
2022-12-31T22:41:31.414Z,68875.69
2022-12-31T22:44:04.794Z,68867.31
2022-12-31T22:46:33.485Z,68865.06
2022-12-31T22:49:02.448Z,68872.66
2022-12-31T22:51:55.158Z,68857.66
2022-12-31T22:54:18.772Z,68856.69
2022-12-31T22:56:47.290Z,68849.09
2022-12-31T22:59:14.521Z,68847.41
2022-12-31T23:01:41.848Z,68853.88
2022-12-31T23:04:09.275Z,68849.09
2022-12-31T23:06:43.921Z,68857.66
2022-12-31T23:09:31.295Z,68866.38
2022-12-31T23:11:59.039Z,68855.19
2022-12-31T23:14:45.074Z,68858.78
2022-12-31T23:17:41.896Z,68868.28
2022-12-31T23:20:42.924Z,68862.59
2022-12-31T23:23:15.094Z,68852.91
2022-12-31T23:25:45.266Z,68844.94
2022-12-31T23:28:24.615Z,68841.13
2022-12-31T23:30:52.282Z,68835.28
2022-12-31T23:33:25.668Z,68834.50
2022-12-31T23:36:06.780Z,68833.19
2022-12-31T23:38:42.780Z,68839.66
2022-12-31T23:41:24.546Z,68832.25
2022-12-31T23:43:54.342Z,68828.06
2022-12-31T23:46:23.367Z,68801.25
2022-12-31T23:48:57.254Z,68820.69
2022-12-31T23:51:27.562Z,68826.75
2022-12-31T23:53:55.858Z,68817.25
2022-12-31T23:56:25.686Z,68827.88
2022-12-31T23:58:57.360Z,68835.28
